ASN logo
Last updated: 3 December 2021
Status:
Datum:woensdag 14 oktober 2020
Tijd:ca 13:29
Type:Silhouette image of generic AN32 model; specific model in this crash may look slightly different
Antonov An-32A
Luchtvaartmaatschappij:AerCaribe Peru
Registratie: OB-2120-P
Constructienummer: 1805
Bouwjaar: 1989
Motoren: 2 Ivchenko AI-20D-5
Bemanning:slachtoffers: 0 / inzittenden: 4
Passagiers:slachtoffers: 0 / inzittenden: 0
Totaal:slachtoffers: 0 / inzittenden: 4
Schade: Vernield
Gevolgen: Written off (damaged beyond repair)
Plaats:Iquitos-Coronel Francisco Secada Vignetta International Airport (IQT) (   Peru)
Fase: Landing (LDG)
Soort vlucht:Vracht
Vliegveld van vertrek:Lima-Jorge Chávez International Airport (LIM/SPJC), Peru
Vliegveld van aankomst:Iquitos-Coronel FAP Francisco Secada Vignetta International Airport (IQT/SPQT), Peru
Beschrijving:
An Aer Caribe Antonov An-32 cargo plane suffered a runway excursion after landing at Iquitos Airport, Peru.
The aircraft landed normally on runway 06 at Iquitos Airport. At a distance of 1225m from the threshold of runway 06, the crew turned off the "PROPS STOP" switch. This caused a gradual and uncontrolled turn of the aircraft to the left. It veered off the side at a distance of 1475m from the runway 06 threshold.
The aircraft moved on a flat surface but struck a drainage ditch, which led to the separation of the right wing, right engine, right main gear and a fire.

Accident investigation:
Investigating agency: CIAA Peru
Status: Investigation ongoing

Bronnen:
» rpp.pe
» AerCaribe
» NBAAI

METAR Weather report:
17:00 UTC / 12:00 local time:
SPQT 141700Z 35004KT 310V090 9999 SCT020 32/23 Q1011 NOSIG RMK BIRD HAZARD RWY 06/24 PP000

18:00 UTC / 13:00 local time:
SPQT 141800Z VRB04KT 9999 VCSH BKN020 33/24 Q1009 NOSIG RMK BIRD HAZARD RWY 06/24 PP000

18:33 UTC / 13:33 local time:
SPQT 141833Z 34008KT 300V360 8000 2000N TSRA BKN020 FEW025CB 28/22 Q1008

19:00 UTC / 14:00 local time:
SPQT 141900Z 36008KT 4000 TSRA BKN020 FEW025CB BKN100 25/23 Q1008 TEMPO 5000 SHRA RMK PP024


Foto's

Add your photo of this accident or aircraft

Video, social media

Aircraft history
date registration operator remarks
April 1989 YN-CBU Aeronica delivered
November 1995 HK-4052X Ibero Americana Colombia de Cargo
HK-4052X CariCarga
HK-4052X SELVA
HK-4052 SELVA
2010 HK-4052G SELVA
2012 HK-4052 AerCaribe
December 2015 OB-2120-P AerCaribe Peru
5 August 2019 OB-2120-P AerCaribe Peru uncommanded engine shutdown in flight

Kaart
Deze kaart geeft het vliegveld van vetrek weer en de geplande bestemming van de vlucht. De lijn tussen de vliegvelden geeft niet de exacte vliegroute weer.
De afstand tussen Lima-Jorge Chávez International Airport en Iquitos-Coronel FAP Francisco Secada Vignetta International Airport bedraagt 1003 km (627 miles).
Accident location: Approximate; accuracy within a few kilometers.

This information is not presented as the Flight Safety Foundation or the Aviation Safety Network’s opinion as to the cause of the accident. It is preliminary and is based on the facts as they are known at this time.
languages: languages

Share